Flight Track Log - Related Links

Times and Time Zones

All times are in EDT time to prevent confusion due to time zone crossing. See the GGN7282 flight status page for this flight to view local times or setup timezone preferences in your user account.

Time Position Orientation Groundspeed Altitude Reporting Facility
EDT Latitude Longitude Course Direction KTS MPH feet Rate Location/Type
Mon 04:26:10 PM 43.6833 -79.6167 360° North 10 12 500  Level Toronto Center
Mon 04:28:10 PM 43.6833 -79.6167 36° Northeast 20 23 500  Level Toronto Center
Mon 04:29:10 PM 43.6833 -79.6167 36° Northeast 10 12 500 250 Level Toronto Center
Mon 04:32:10 PM 43.6500 -79.6500 216° Southwest 130 150 1,500 600 Climbing Toronto Center
Mon 04:33:10 PM 43.6167 -79.6833 216° Southwest 160 184 2,900 1,150 Climbing Toronto Center
Mon 04:34:10 PM 43.5667 -79.6500 154° Southeast 200 230 3,800 850 Climbing Toronto Center
Mon 04:35:10 PM 43.5167 -79.6167 154° Southeast 220 253 4,600 650 Climbing Toronto Center
Mon 04:36:10 PM 43.5000 -79.5167 103° East 240 276 5,100 250 Climbing Toronto Center
Mon 04:37:10 PM 43.5000 -79.4000 90° East 260 299 5,100 350 Level Toronto Center
Mon 04:38:10 PM 43.5000 -79.3167 90° East 260 299 5,800 600 Climbing Toronto Center
Mon 04:39:10 PM 43.5000 -79.2167 90° East 250 288 6,300 550 Climbing Toronto Center
Mon 04:40:10 PM 43.5000 -79.1333 90° East 250 288 6,900 650 Climbing Toronto Center
Mon 04:41:10 PM 43.4667 -79.0333 115° Southeast 250 288 7,600 650 Climbing Toronto Center
Mon 04:42:10 PM 43.4333 -78.9667 125° Southeast 240 276 8,200 650 Climbing Toronto Center
Mon 04:43:10 PM 43.4000 -78.8833 119° Southeast 250 288 8,900 400 Climbing Toronto Center
Mon 04:44:10 PM 43.3667 -78.7833 115° Southeast 250 288 9,000 50 Climbing Toronto Center
Mon 04:45:10 PM 43.3333 -78.7167 124° Southeast 260 299 9,000  Level Toronto Center
Mon 04:46:10 PM 43.2833 -78.6333 129° Southeast 260 299 9,000  Level Toronto Center
Mon 04:47:10 PM 43.2500 -78.5333 115° Southeast 260 299 9,000  Level Toronto Center
Mon 04:48:10 PM 43.1833 -78.4667 144° Southeast 260 299 9,000  Level Toronto Center
Mon 04:49:10 PM 43.1833 -78.3833 90° East 260 299 9,000  Level Toronto Center
Mon 04:49:40 PM 43.1908 -78.3422 76° East 259 298 9,000  Level Cleveland Center
Mon 04:50:40 PM 43.1828 -78.2428 96° East 260 299 9,000  Level Cleveland Center
Mon 04:51:35 PM 43.1725 -78.1494 99° East 259 298 9,000  Level Cleveland Center
Mon 04:52:42 PM 43.1578 -78.0475 101° East 260 299 9,000  Level Cleveland Center
Mon 04:53:42 PM 43.1472 -77.9511 99° East 259 298 9,000  Level Cleveland Center
Mon 04:54:43 PM 43.1367 -77.8519 98° East 259 298 9,000  Level Cleveland Center
Mon 04:55:37 PM 43.1408 -77.7636 86° East 255 293 9,000  Level Cleveland Center
Mon 04:56:38 PM 43.1531 -77.6719 80° East 261 300 9,000  Level Cleveland Center
Mon 04:57:39 PM 43.1547 -77.5694 89° East 259 298 9,000  Level Cleveland Center
Mon 04:58:39 PM 43.1561 -77.4725 89° East 258 297 9,000  Level Cleveland Center
Mon 04:59:40 PM 43.1578 -77.3728 89° East 259 298 9,000  Level Cleveland Center
Mon 05:00:41 PM 43.1569 -77.2761 91° East 257 296 9,000  Level Cleveland Center
Mon 05:02:53 PM 43.1575 -77.0519 90° East 261 300 9,000  Level Boston Center
Mon 05:03:54 PM 43.1594 -76.9522 88° East 261 300 9,000  Level Boston Center
Mon 05:05:00 PM 43.1592 -76.8525 90° East 254 292 9,000  Level Boston Center
Mon 05:06:01 PM 43.1608 -76.7558 89° East 253 291 9,000  Level Boston Center
Mon 05:07:01 PM 43.1628 -76.6478 89° East 259 298 9,000  Level Boston Center
Mon 05:08:02 PM 43.1600 -76.5508 92° East 262 302 9,000  Level Boston Center
Mon 05:09:03 PM 43.1617 -76.4483 89° East 262 302 9,000  Level Boston Center
Mon 05:09:57 PM 43.1583 -76.3600 93° East 262 302 9,000  Level Boston Center
Mon 05:10:58 PM 43.1597 -76.2603 89° East 263 303 9,000  Level Boston Center
Mon 05:11:59 PM 43.1544 -76.1633 94° East 260 299 9,000  Level Boston Center
Mon 05:12:53 PM 43.1447 -76.0772 99° East 259 298 9,000  Level Boston Center
Mon 05:13:54 PM 43.1292 -75.9767 102° East 261 300 9,000 -49 Level Boston Center
Mon 05:14:55 PM 43.1178 -75.8708 98° East 261 300 8,900  Descending Boston Center
Mon 05:15:55 PM 43.1061 -75.7761 100° East 261 300 9,000 50 Climbing Boston Center
Mon 05:16:56 PM 43.0922 -75.6789 101° East 262 302 9,000 -55 Level Boston Center
Mon 05:17:44 PM 43.0839 -75.6014 98° East 261 300 8,900 -55 Descending Boston Center
Mon 05:18:45 PM 43.0681 -75.4983 102° East 262 302 8,900  Level Boston Center
Mon 05:19:52 PM 43.0561 -75.3925 99° East 264 304 8,900  Level Boston Center
Mon 05:20:52 PM 43.0419 -75.2925 101° East 264 304 8,900  Level Boston Center
Mon 05:21:53 PM 43.0297 -75.1953 100° East 263 303 8,900  Level Boston Center
Mon 05:22:47 PM 43.0131 -75.1064 104° East 262 302 8,900  Level Boston Center
Mon 05:23:48 PM 42.9944 -75.0092 105° East 262 302 8,900 -246 Level Boston Center
Mon 05:24:49 PM 42.9781 -74.9119 103° East 267 307 8,400 -545 Descending Boston Center
Mon 05:25:49 PM 42.9572 -74.8147 106° East 276 318 7,800 -673 Descending Boston Center
Mon 05:26:27 PM 42.9400 -74.7403 108° East 278 320 7,300 -667 Descending Boston Center
Mon 05:27:28 PM 42.9169 -74.6403 107° East 278 320 6,700 -639 Descending Boston Center
Mon 05:28:29 PM 42.9000 -74.5375 103° East 270 311 6,000 -645 Descending Boston Center
Mon 05:29:29 PM 42.8786 -74.4461 108° East 259 298 5,400 -595 Descending Boston Center
Mon 05:30:30 PM 42.8617 -74.3550 104° East 258 297 4,800 -590 Descending Boston Center
Mon 05:31:31 PM 42.8422 -74.2608 106° East 258 297 4,200 -397 Descending Boston Center
Mon 05:32:31 PM 42.8189 -74.1583 107° East 256 295 4,000 -99 Descending Boston Center
Mon 05:33:32 PM 42.7717 -74.1003 138° Southeast 242 278 4,000  Level Boston Center
Mon 05:34:33 PM 42.7117 -74.0706 160° South 232 267 4,000 -50 Level Boston Center
Mon 05:35:33 PM 42.6561 -74.0267 150° Southeast 228 262 3,900 -248 Descending Boston Center
Mon 05:36:34 PM 42.5983 -73.9800 149° Southeast 240 276 3,500 -197 Descending Boston Center
Mon 05:37:35 PM 42.5578 -73.9058 127° Southeast 237 273 3,500 -446 Level Boston Center
Mon 05:38:35 PM 42.5547 -73.8183 93° East 233 268 2,600 -900 Descending Boston Center

Login

Don't have an account? Register now (free) for customized features, flight alerts, and more!